Main page
METAR-TAF:

METAR-TAF

Airports :

Salamanca, Spain

Salamanca Airport

latitude: 40-57N, longitude: 005-30W, elevation: 793 m

Current weather observation

The report was made 9 hours and 45 minutes ago, at 18:00 UTC
Wind 3 kt from the East
Temperature 21°C
Humidity 35%
Pressure 1023 hPa
Visibility 10 km or more
no clouds below 1500 m and no cumulonimbus

METAR: LESA 191800Z 09003KT CAVOK 21/05 Q1023

Time: 05:45 (03:45 UTC)

Forecast

The report was made 4 hours and 45 minutes ago, at 23:00 UTC
Forecast valid from 20 at 00 UTC to 20 at 24 UTC
Wind 5 kt from variable directions
Visibility 10 km or more
no clouds below 1500 m and no cumulonimbus

TAF: LESA 192300Z 2000/2024 VRB05KT CAVOK TX28/2015Z TN06/2006Z

Weather observations and forecasts of more than 4000 airports (METAR and TAF reports).

The available stations are represented by yellow and red dots on the map.

Hover mouse over dot to see the name of the station.

Then click to see weather observations and forecasts.

To change the map : click on the green buttons with a black cross to zoom in, on the green button with a dash to zoom out, or on the green arrows for adjacent maps.


METAR-TAF: